createdAt,value
2018-02-07T00:00:16.555Z,0.00
2018-02-07T00:01:16.567Z,0.00
2018-02-07T00:02:16.579Z,0.00
2018-02-07T00:03:16.589Z,0.00
2018-02-07T00:04:16.602Z,0.00
2018-02-07T00:05:16.609Z,0.00
2018-02-07T00:06:16.621Z,0.00
2018-02-07T00:07:16.632Z,0.00
2018-02-07T00:08:16.642Z,0.00
2018-02-07T00:09:16.654Z,0.00
2018-02-07T00:10:16.664Z,0.00
2018-02-07T00:11:16.679Z,0.00
2018-02-07T00:12:16.687Z,0.00
2018-02-07T00:13:16.697Z,0.00
2018-02-07T00:14:16.709Z,0.00
2018-02-07T00:15:16.717Z,0.00
2018-02-07T00:16:16.732Z,0.00
2018-02-07T00:17:16.739Z,0.00
2018-02-07T00:18:16.753Z,0.00
2018-02-07T00:19:16.762Z,0.00
2018-02-07T00:20:16.771Z,0.00
2018-02-07T00:21:16.786Z,0.00
2018-02-07T00:22:16.796Z,0.00
2018-02-07T00:23:16.808Z,0.00
2018-02-07T00:24:16.819Z,0.00
2018-02-07T00:25:16.959Z,0.00
2018-02-07T00:26:16.841Z,0.00
2018-02-07T00:27:16.865Z,0.00
2018-02-07T00:28:16.863Z,0.00
2018-02-07T00:29:16.876Z,0.00
2018-02-07T00:30:16.879Z,0.00
2018-02-07T00:31:16.891Z,0.00
2018-02-07T00:32:16.905Z,0.00
2018-02-07T00:33:16.918Z,0.00
2018-02-07T00:34:16.926Z,0.00
2018-02-07T00:35:16.938Z,0.00
2018-02-07T00:36:16.951Z,0.00
2018-02-07T00:37:16.959Z,0.00
2018-02-07T00:38:16.969Z,0.00
2018-02-07T00:39:16.983Z,0.00
2018-02-07T00:40:16.990Z,0.00
2018-02-07T00:41:17.006Z,0.00
2018-02-07T00:42:17.014Z,0.00
2018-02-07T00:43:17.024Z,0.00
2018-02-07T00:44:17.037Z,0.00
2018-02-07T00:45:17.046Z,0.00
2018-02-07T00:46:17.060Z,0.00
2018-02-07T00:47:17.070Z,0.00
2018-02-07T00:48:17.078Z,0.00
2018-02-07T00:49:17.094Z,0.00
2018-02-07T00:50:17.108Z,0.00
2018-02-07T00:51:17.113Z,0.00
2018-02-07T00:52:17.135Z,0.00
2018-02-07T00:53:17.136Z,0.00
2018-02-07T00:54:17.149Z,0.00
2018-02-07T00:55:17.160Z,0.00
2018-02-07T00:56:17.174Z,0.00
2018-02-07T00:57:17.181Z,0.00
2018-02-07T00:58:17.202Z,0.00
2018-02-07T00:59:17.204Z,0.00
2018-02-07T01:00:17.216Z,0.00
2018-02-07T01:01:17.226Z,0.00
2018-02-07T01:02:17.241Z,0.00
2018-02-07T01:03:17.249Z,0.00
2018-02-07T01:04:17.260Z,0.00
2018-02-07T01:05:17.268Z,0.00
2018-02-07T01:06:17.282Z,0.00
2018-02-07T01:07:17.300Z,0.00
2018-02-07T01:08:17.307Z,0.00
2018-02-07T01:09:17.327Z,0.00
2018-02-07T01:10:17.326Z,0.00
2018-02-07T01:11:17.339Z,0.00
2018-02-07T01:12:17.350Z,0.00
2018-02-07T01:13:17.365Z,0.00
2018-02-07T01:14:17.377Z,0.00
2018-02-07T01:15:17.386Z,0.00
2018-02-07T01:16:17.400Z,0.00
2018-02-07T01:17:17.412Z,0.00
2018-02-07T01:18:17.419Z,0.00
2018-02-07T01:19:17.431Z,0.00
2018-02-07T01:20:17.445Z,0.00
2018-02-07T01:21:17.461Z,0.00
2018-02-07T01:22:17.463Z,0.00
2018-02-07T01:23:17.476Z,0.00
2018-02-07T01:24:17.487Z,0.00
2018-02-07T01:25:17.498Z,0.00
2018-02-07T01:26:17.512Z,0.00
2018-02-07T01:27:17.519Z,0.00
2018-02-07T01:28:17.530Z,0.00
2018-02-07T01:29:17.544Z,0.00
2018-02-07T01:30:17.586Z,0.00
2018-02-07T01:31:17.567Z,0.00
2018-02-07T01:32:17.577Z,0.00
2018-02-07T01:33:17.588Z,0.00
2018-02-07T01:34:17.603Z,0.00
2018-02-07T01:35:17.611Z,0.00
2018-02-07T01:36:17.624Z,0.00
2018-02-07T01:37:17.634Z,0.00
2018-02-07T01:38:17.656Z,0.00
2018-02-07T01:39:17.660Z,0.00
2018-02-07T01:40:17.694Z,0.00
2018-02-07T01:41:17.676Z,0.00
2018-02-07T01:42:17.705Z,0.00
2018-02-07T01:43:17.700Z,0.00
2018-02-07T01:44:17.712Z,0.00
2018-02-07T01:45:17.727Z,0.00
2018-02-07T01:46:17.735Z,0.00
2018-02-07T01:47:17.746Z,0.00
2018-02-07T01:48:17.758Z,0.00
2018-02-07T01:49:17.767Z,0.00
2018-02-07T01:50:17.779Z,0.00
2018-02-07T01:51:17.787Z,0.00
2018-02-07T01:52:17.801Z,0.00
2018-02-07T01:53:17.815Z,0.00
2018-02-07T01:54:17.824Z,0.00
2018-02-07T01:55:17.833Z,0.00
2018-02-07T01:56:17.841Z,0.00
2018-02-07T01:57:17.851Z,0.00
2018-02-07T01:58:17.867Z,0.00
2018-02-07T01:59:17.875Z,0.00
2018-02-07T02:00:17.888Z,0.00
2018-02-07T02:01:17.896Z,0.00
2018-02-07T02:02:17.910Z,0.00
2018-02-07T02:03:17.917Z,0.00
2018-02-07T02:04:17.932Z,0.00
2018-02-07T02:05:17.945Z,0.00
2018-02-07T02:06:17.958Z,0.00
2018-02-07T02:07:17.963Z,0.00
2018-02-07T02:08:17.976Z,0.00
2018-02-07T02:09:17.987Z,0.00
2018-02-07T02:10:17.997Z,0.00
2018-02-07T02:11:18.009Z,0.00
2018-02-07T02:12:18.021Z,0.00
2018-02-07T02:13:18.032Z,0.00
2018-02-07T02:14:18.037Z,0.00
2018-02-07T02:15:18.052Z,0.00
2018-02-07T02:16:18.066Z,0.00
2018-02-07T02:17:18.075Z,0.00
2018-02-07T02:18:18.086Z,0.00
2018-02-07T02:19:18.096Z,0.00
2018-02-07T02:20:18.110Z,0.00
2018-02-07T02:21:18.117Z,0.00
2018-02-07T02:22:18.130Z,0.00
2018-02-07T02:23:18.137Z,0.00
2018-02-07T02:24:18.151Z,0.00
2018-02-07T02:25:18.167Z,0.00
2018-02-07T02:26:18.174Z,0.00
2018-02-07T02:27:18.183Z,0.00
2018-02-07T02:28:18.193Z,0.00
2018-02-07T02:29:18.207Z,0.00
2018-02-07T02:30:18.219Z,0.00
2018-02-07T02:31:18.278Z,0.00
2018-02-07T02:32:18.239Z,0.00
2018-02-07T02:33:18.251Z,0.00
2018-02-07T02:34:18.260Z,0.00
2018-02-07T02:35:18.277Z,0.00
2018-02-07T02:36:18.287Z,0.00
2018-02-07T02:37:18.329Z,0.00
2018-02-07T02:38:18.306Z,0.00
2018-02-07T02:39:18.319Z,0.00
2018-02-07T02:40:18.343Z,0.00
2018-02-07T02:41:18.337Z,0.00
2018-02-07T02:42:18.353Z,0.00
2018-02-07T02:43:18.361Z,0.00
2018-02-07T02:44:18.373Z,0.00
2018-02-07T02:45:18.384Z,0.00
2018-02-07T02:46:18.395Z,0.00
2018-02-07T02:47:18.406Z,0.00
2018-02-07T02:48:18.421Z,0.00
2018-02-07T02:49:18.427Z,0.00
2018-02-07T02:50:18.442Z,0.00
2018-02-07T02:51:18.453Z,0.00
2018-02-07T02:52:18.468Z,0.00
2018-02-07T02:53:18.483Z,0.00
2018-02-07T02:54:18.481Z,0.00
2018-02-07T02:55:18.496Z,0.00
2018-02-07T02:56:18.510Z,0.00
2018-02-07T02:57:18.519Z,0.00
2018-02-07T02:58:18.526Z,0.00
2018-02-07T02:59:18.536Z,0.00
2018-02-07T03:00:18.550Z,0.00
2018-02-07T03:01:18.558Z,0.00
2018-02-07T03:02:18.570Z,0.00
2018-02-07T03:03:18.582Z,0.00
2018-02-07T03:04:18.592Z,0.00
2018-02-07T03:05:18.605Z,0.00
2018-02-07T03:06:18.613Z,0.00
2018-02-07T03:07:18.630Z,0.00
2018-02-07T03:08:18.637Z,0.00
2018-02-07T03:09:18.644Z,0.00
2018-02-07T03:10:18.654Z,0.00
2018-02-07T03:11:18.667Z,0.00
2018-02-07T03:12:18.680Z,0.00
2018-02-07T03:13:18.687Z,0.00
2018-02-07T03:14:18.702Z,0.00
2018-02-07T03:15:18.712Z,0.00
2018-02-07T03:16:18.718Z,0.00
2018-02-07T03:17:18.731Z,0.00
2018-02-07T03:18:18.739Z,0.00
2018-02-07T03:19:18.752Z,0.00
2018-02-07T03:20:18.765Z,0.00
2018-02-07T03:21:18.774Z,0.00
2018-02-07T03:22:18.786Z,0.00
2018-02-07T03:23:18.799Z,0.00
2018-02-07T03:24:18.804Z,0.00
2018-02-07T03:25:18.819Z,0.00
2018-02-07T03:26:18.828Z,0.00
2018-02-07T03:27:18.844Z,0.00
2018-02-07T03:28:18.849Z,0.00
2018-02-07T03:29:18.858Z,0.00
2018-02-07T03:30:18.870Z,0.00
2018-02-07T03:31:18.891Z,0.00
2018-02-07T03:32:18.893Z,0.00
2018-02-07T03:33:18.907Z,0.00
2018-02-07T03:34:18.911Z,0.00
2018-02-07T03:35:18.929Z,0.00
2018-02-07T03:36:18.939Z,0.00
2018-02-07T03:37:18.943Z,0.00
2018-02-07T03:38:18.955Z,0.00
2018-02-07T03:39:18.965Z,0.00
2018-02-07T03:40:18.977Z,0.00
2018-02-07T03:41:18.991Z,0.00
2018-02-07T03:42:18.999Z,0.00
2018-02-07T03:43:19.142Z,0.00
2018-02-07T03:44:19.020Z,0.00
2018-02-07T03:45:19.034Z,0.00
2018-02-07T03:46:19.050Z,0.00
2018-02-07T03:47:19.057Z,0.00
2018-02-07T03:48:19.074Z,0.00
2018-02-07T03:49:19.077Z,0.00
2018-02-07T03:50:19.083Z,0.00
2018-02-07T03:51:19.098Z,0.00
2018-02-07T03:52:19.109Z,0.00
2018-02-07T03:53:19.114Z,0.00
2018-02-07T03:54:19.129Z,0.00
2018-02-07T03:55:19.142Z,0.00
2018-02-07T03:56:19.150Z,0.00
2018-02-07T03:57:19.158Z,0.00
2018-02-07T03:58:19.171Z,0.00
2018-02-07T03:59:19.180Z,0.00
2018-02-07T04:00:19.190Z,0.00
2018-02-07T04:01:19.198Z,0.00
2018-02-07T04:02:19.212Z,0.00
2018-02-07T04:03:19.222Z,0.00
2018-02-07T04:04:19.242Z,0.00
2018-02-07T04:05:19.243Z,0.00
2018-02-07T04:06:19.267Z,0.00
2018-02-07T04:07:19.265Z,0.00
2018-02-07T04:08:19.277Z,0.00
2018-02-07T04:09:19.287Z,0.00
2018-02-07T04:10:19.298Z,0.00
2018-02-07T04:11:19.308Z,0.00
2018-02-07T04:12:19.320Z,0.00
2018-02-07T04:13:19.329Z,0.00
2018-02-07T04:14:19.340Z,0.00
2018-02-07T04:15:19.353Z,0.00
2018-02-07T04:16:19.369Z,0.00
2018-02-07T04:17:19.376Z,0.00
2018-02-07T04:18:19.387Z,0.00
2018-02-07T04:19:19.398Z,0.00
2018-02-07T04:20:19.408Z,0.00
2018-02-07T04:21:19.418Z,0.00
2018-02-07T04:22:19.428Z,0.00
2018-02-07T04:23:19.437Z,0.00
2018-02-07T04:24:19.451Z,0.00
2018-02-07T04:25:19.457Z,0.00
2018-02-07T04:26:19.476Z,0.00
2018-02-07T04:27:19.482Z,0.00
2018-02-07T04:28:19.493Z,0.00
2018-02-07T04:29:19.508Z,0.00
2018-02-07T04:30:19.516Z,0.00
2018-02-07T04:31:19.527Z,0.00
2018-02-07T04:32:19.539Z,0.00
2018-02-07T04:33:19.548Z,0.00
2018-02-07T04:34:19.563Z,0.00
2018-02-07T04:35:19.569Z,0.00
2018-02-07T04:36:19.583Z,0.00
2018-02-07T04:37:19.590Z,0.00
2018-02-07T04:38:19.603Z,0.00
2018-02-07T04:39:19.611Z,0.00
2018-02-07T04:40:19.629Z,0.00
2018-02-07T04:41:19.637Z,0.00
2018-02-07T04:42:19.650Z,0.00
2018-02-07T04:43:19.657Z,0.00
2018-02-07T04:44:19.675Z,0.00
2018-02-07T04:45:19.679Z,0.00
2018-02-07T04:46:19.690Z,0.00
2018-02-07T04:47:19.700Z,0.00
2018-02-07T04:48:19.712Z,0.00
2018-02-07T04:49:19.723Z,0.00
2018-02-07T04:50:19.733Z,0.00
2018-02-07T04:51:19.746Z,0.00
2018-02-07T04:52:19.754Z,0.00
2018-02-07T04:53:19.764Z,0.00
2018-02-07T04:54:19.775Z,0.00
2018-02-07T04:55:19.786Z,0.00
2018-02-07T04:56:19.817Z,0.00
2018-02-07T04:57:19.809Z,0.00
2018-02-07T04:58:19.821Z,0.00
2018-02-07T04:59:19.831Z,0.00
2018-02-07T05:00:19.841Z,0.00
2018-02-07T05:01:19.856Z,0.00
2018-02-07T05:02:19.864Z,0.00
2018-02-07T05:03:19.874Z,0.00
2018-02-07T05:04:19.886Z,0.00
2018-02-07T05:05:19.898Z,0.00
2018-02-07T05:06:19.906Z,0.00
2018-02-07T05:07:19.916Z,0.00
2018-02-07T05:08:19.930Z,0.00
2018-02-07T05:09:19.948Z,0.00
2018-02-07T05:10:19.952Z,0.00
2018-02-07T05:11:19.959Z,0.00
2018-02-07T05:12:19.976Z,0.00
2018-02-07T05:13:19.980Z,0.00
2018-02-07T05:14:19.992Z,0.00
2018-02-07T05:15:20.009Z,0.00
2018-02-07T05:16:20.015Z,0.00
2018-02-07T05:17:20.027Z,0.00
2018-02-07T05:18:20.036Z,0.00
2018-02-07T05:19:20.045Z,0.00
2018-02-07T05:20:20.057Z,0.00
2018-02-07T05:21:20.067Z,0.00
2018-02-07T05:22:20.078Z,0.00
2018-02-07T05:23:20.092Z,0.00
2018-02-07T05:24:20.097Z,0.00
2018-02-07T05:25:20.108Z,0.00
2018-02-07T05:26:20.130Z,0.00
2018-02-07T05:27:20.140Z,0.00
2018-02-07T05:28:20.142Z,0.00
2018-02-07T05:29:20.151Z,0.00
2018-02-07T05:30:20.164Z,0.00
2018-02-07T05:31:20.174Z,0.00
2018-02-07T05:32:20.182Z,0.00
2018-02-07T05:33:20.191Z,0.00
2018-02-07T05:34:20.203Z,0.00
2018-02-07T05:35:20.212Z,0.00
2018-02-07T05:36:20.222Z,0.00
2018-02-07T05:37:20.237Z,0.00
2018-02-07T05:38:20.242Z,0.00
2018-02-07T05:39:20.295Z,0.00
2018-02-07T05:40:20.340Z,0.00
2018-02-07T05:41:20.277Z,0.00
2018-02-07T05:42:20.291Z,0.00
2018-02-07T05:43:20.299Z,0.00
2018-02-07T05:44:20.306Z,0.00
2018-02-07T05:45:20.321Z,0.00
2018-02-07T05:46:20.326Z,0.00
2018-02-07T05:47:20.337Z,0.00
2018-02-07T05:48:20.350Z,0.00
2018-02-07T05:49:20.359Z,0.00
2018-02-07T05:50:20.371Z,0.00
2018-02-07T05:51:20.382Z,0.00
2018-02-07T05:52:20.397Z,0.00
2018-02-07T05:53:20.404Z,0.00
2018-02-07T05:54:20.414Z,0.00
2018-02-07T05:55:20.425Z,0.00
2018-02-07T05:56:20.435Z,0.00
2018-02-07T05:57:20.443Z,0.00
2018-02-07T05:58:20.454Z,0.00
2018-02-07T05:59:20.469Z,0.00
2018-02-07T06:00:20.477Z,0.00
2018-02-07T06:01:20.490Z,0.00
2018-02-07T06:02:20.498Z,0.00
2018-02-07T06:03:20.513Z,0.00
2018-02-07T06:04:20.521Z,0.00
2018-02-07T06:05:20.533Z,0.00
2018-02-07T06:06:20.541Z,0.00
2018-02-07T06:07:20.568Z,0.00
2018-02-07T06:08:20.597Z,0.00
2018-02-07T06:09:20.573Z,0.00
2018-02-07T06:10:20.588Z,0.00
2018-02-07T06:11:20.592Z,0.00
2018-02-07T06:12:20.610Z,0.00
2018-02-07T06:13:20.618Z,0.00
2018-02-07T06:14:20.626Z,0.00
2018-02-07T06:15:20.637Z,0.00
2018-02-07T06:16:20.647Z,0.00
2018-02-07T06:17:20.658Z,0.00
2018-02-07T06:18:20.668Z,0.00
2018-02-07T06:19:20.679Z,4.00
2018-02-07T06:20:20.692Z,4.00
2018-02-07T06:21:20.701Z,4.00
2018-02-07T06:22:20.711Z,4.00
2018-02-07T06:23:20.722Z,0.00
2018-02-07T06:24:20.736Z,0.00
2018-02-07T06:25:20.761Z,4.00
2018-02-07T06:26:20.759Z,4.00
2018-02-07T06:27:20.766Z,4.00
2018-02-07T06:28:20.777Z,4.00
2018-02-07T06:29:20.795Z,4.00
2018-02-07T06:30:20.798Z,4.00
2018-02-07T06:31:20.811Z,8.00
2018-02-07T06:32:20.829Z,8.00
2018-02-07T06:33:20.844Z,8.00
2018-02-07T06:34:20.846Z,12.00
2018-02-07T06:35:20.857Z,16.00
2018-02-07T06:36:20.867Z,16.00
2018-02-07T06:37:20.874Z,16.00
2018-02-07T06:38:20.888Z,20.00
2018-02-07T06:39:20.895Z,24.00
2018-02-07T06:40:20.908Z,20.00
2018-02-07T06:41:20.918Z,28.00
2018-02-07T06:42:20.930Z,28.00
2018-02-07T06:43:20.944Z,32.00
2018-02-07T06:44:20.955Z,36.00
2018-02-07T06:45:20.964Z,40.00
2018-02-07T06:46:20.972Z,48.00
2018-02-07T06:47:20.988Z,52.00
2018-02-07T06:48:20.996Z,56.00
2018-02-07T06:49:21.006Z,64.00
2018-02-07T06:50:21.033Z,68.00
2018-02-07T06:51:21.024Z,72.00
2018-02-07T06:52:21.040Z,80.00
2018-02-07T06:53:21.052Z,84.00
2018-02-07T06:54:21.056Z,92.00
2018-02-07T06:55:21.071Z,100.00
2018-02-07T06:56:21.082Z,108.00
2018-02-07T06:57:21.091Z,120.00
2018-02-07T06:58:21.105Z,128.00
2018-02-07T06:59:21.112Z,140.00
2018-02-07T07:00:21.164Z,148.00
2018-02-07T07:01:21.131Z,164.00
2018-02-07T07:02:21.149Z,180.00
2018-02-07T07:03:21.154Z,196.00
2018-02-07T07:04:21.166Z,212.00
2018-02-07T07:05:21.177Z,224.00
2018-02-07T07:06:21.200Z,236.00
2018-02-07T07:07:21.199Z,244.00
2018-02-07T07:08:21.210Z,252.00
2018-02-07T07:09:21.218Z,264.00
2018-02-07T07:10:21.228Z,276.00
2018-02-07T07:11:21.245Z,292.00
2018-02-07T07:12:21.253Z,308.00
2018-02-07T07:13:21.262Z,328.00
2018-02-07T07:14:21.275Z,352.00
2018-02-07T07:15:21.284Z,380.00
2018-02-07T07:16:21.297Z,400.00
2018-02-07T07:17:21.304Z,412.00
2018-02-07T07:18:21.315Z,424.00
2018-02-07T07:19:21.328Z,436.00
2018-02-07T07:20:21.342Z,448.00
2018-02-07T07:21:21.348Z,464.00
2018-02-07T07:22:21.360Z,476.00
2018-02-07T07:23:21.369Z,488.00
2018-02-07T07:24:21.382Z,496.00
2018-02-07T07:25:21.393Z,504.00
2018-02-07T07:26:21.409Z,512.00
2018-02-07T07:27:21.416Z,516.00
2018-02-07T07:28:21.425Z,528.00
2018-02-07T07:29:21.437Z,576.00
2018-02-07T07:30:21.446Z,636.00
2018-02-07T07:31:21.458Z,704.00
2018-02-07T07:32:21.472Z,764.00
2018-02-07T07:33:21.478Z,824.00
2018-02-07T07:34:21.488Z,876.00
2018-02-07T07:35:21.502Z,924.00
2018-02-07T07:36:21.514Z,972.00
2018-02-07T07:37:21.521Z,1012.00
2018-02-07T07:38:21.533Z,1044.00
2018-02-07T07:39:21.547Z,1080.00
2018-02-07T07:40:21.554Z,1132.00
2018-02-07T07:41:21.566Z,1200.00
2018-02-07T07:42:21.577Z,1284.00
2018-02-07T07:43:21.588Z,1380.00
2018-02-07T07:44:21.600Z,1468.00
2018-02-07T07:45:21.609Z,1540.00
2018-02-07T07:46:21.621Z,1592.00
2018-02-07T07:47:21.633Z,1620.00
2018-02-07T07:48:21.641Z,1644.00
2018-02-07T07:49:21.653Z,1676.00
2018-02-07T07:50:21.663Z,1720.00
2018-02-07T07:51:21.676Z,1764.00
2018-02-07T07:52:21.692Z,1804.00
2018-02-07T07:53:21.699Z,1856.00
2018-02-07T07:54:21.711Z,1944.00
2018-02-07T07:55:21.725Z,2048.00
2018-02-07T07:56:21.735Z,2160.00
2018-02-07T07:57:21.745Z,2288.00
2018-02-07T07:58:21.761Z,2400.00
2018-02-07T07:59:21.778Z,2472.00
2018-02-07T08:00:21.778Z,2512.00
2018-02-07T08:01:21.792Z,2508.00
2018-02-07T08:02:21.816Z,2536.00
2018-02-07T08:03:21.815Z,2596.00
2018-02-07T08:04:21.825Z,2628.00
2018-02-07T08:05:21.834Z,2616.00
2018-02-07T08:06:21.845Z,2600.00
2018-02-07T08:07:21.858Z,2600.00
2018-02-07T08:08:21.870Z,2620.00
2018-02-07T08:09:21.879Z,2628.00
2018-02-07T08:10:21.894Z,2660.00
2018-02-07T08:11:21.901Z,2720.00
2018-02-07T08:12:21.919Z,2804.00
2018-02-07T08:13:21.926Z,2868.00
2018-02-07T08:14:21.940Z,2932.00
2018-02-07T08:15:21.947Z,3028.00
2018-02-07T08:16:21.963Z,3108.00
2018-02-07T08:17:21.972Z,3180.00
2018-02-07T08:18:21.985Z,3268.00
2018-02-07T08:19:21.996Z,3364.00
2018-02-07T08:20:22.010Z,3484.00
2018-02-07T08:21:22.020Z,3616.00
2018-02-07T08:22:22.029Z,3752.00
2018-02-07T08:23:22.044Z,3868.00
2018-02-07T08:24:22.056Z,3960.00
2018-02-07T08:25:22.063Z,4060.00
2018-02-07T08:26:22.075Z,4156.00
2018-02-07T08:27:22.088Z,4260.00
2018-02-07T08:28:22.097Z,4416.00
2018-02-07T08:29:22.126Z,4608.00
2018-02-07T08:30:22.121Z,4820.00
2018-02-07T08:31:22.146Z,5000.00
2018-02-07T08:32:22.157Z,5148.00
2018-02-07T08:33:22.157Z,5252.00
2018-02-07T08:34:22.168Z,5280.00
2018-02-07T08:35:22.179Z,5296.00
2018-02-07T08:36:22.191Z,5336.00
2018-02-07T08:37:22.202Z,5348.00
2018-02-07T08:38:22.213Z,5388.00
2018-02-07T08:39:22.224Z,5404.00
2018-02-07T08:40:22.242Z,5436.00
2018-02-07T08:41:22.248Z,5500.00
2018-02-07T08:42:22.260Z,5644.00
2018-02-07T08:43:22.272Z,5792.00
2018-02-07T08:44:22.284Z,6092.00
2018-02-07T08:45:22.296Z,6252.00
2018-02-07T08:46:22.309Z,6228.00
2018-02-07T08:47:22.317Z,6624.00
2018-02-07T08:48:22.351Z,6648.00
2018-02-07T08:49:22.344Z,6344.00
2018-02-07T08:50:22.360Z,6160.00
2018-02-07T08:51:22.365Z,6024.00
2018-02-07T08:52:22.379Z,6044.00
2018-02-07T08:53:22.392Z,6028.00
2018-02-07T08:54:22.413Z,5968.00
2018-02-07T08:55:22.416Z,5784.00
2018-02-07T08:56:22.429Z,5692.00
2018-02-07T08:57:22.441Z,5564.00
2018-02-07T08:58:22.454Z,5396.00
2018-02-07T08:59:22.460Z,5308.00
2018-02-07T09:00:22.476Z,5252.00
2018-02-07T09:01:22.485Z,5208.00
2018-02-07T09:02:22.500Z,5192.00
2018-02-07T09:03:22.513Z,5156.00
2018-02-07T09:04:22.526Z,5168.00
2018-02-07T09:05:22.534Z,5208.00
2018-02-07T09:06:22.549Z,5232.00
2018-02-07T09:07:22.559Z,5276.00
2018-02-07T09:08:22.570Z,5300.00
2018-02-07T09:09:22.588Z,5244.00
2018-02-07T09:10:22.594Z,5240.00
2018-02-07T09:11:22.610Z,5252.00
2018-02-07T09:12:22.622Z,5292.00
2018-02-07T09:13:22.634Z,5316.00
2018-02-07T09:14:22.647Z,5348.00
2018-02-07T09:15:22.697Z,5376.00
2018-02-07T09:16:22.673Z,5440.00
2018-02-07T09:17:22.684Z,5552.00
2018-02-07T09:18:22.700Z,5696.00
2018-02-07T09:19:22.707Z,5848.00
2018-02-07T09:20:22.722Z,6060.00
2018-02-07T09:21:22.734Z,6232.00
2018-02-07T09:22:22.743Z,6356.00
2018-02-07T09:23:22.756Z,6468.00
2018-02-07T09:24:22.768Z,6520.00
2018-02-07T09:25:22.778Z,6600.00
2018-02-07T09:26:22.793Z,6684.00
2018-02-07T09:27:22.803Z,6760.00
2018-02-07T09:28:22.816Z,6820.00
2018-02-07T09:29:22.828Z,7040.00
2018-02-07T09:30:22.841Z,7268.00
2018-02-07T09:31:22.856Z,7244.00
2018-02-07T09:32:22.864Z,7248.00
2018-02-07T09:33:22.875Z,7204.00
2018-02-07T09:34:22.891Z,7244.00
2018-02-07T09:35:22.902Z,7240.00
2018-02-07T09:36:22.914Z,7148.00
2018-02-07T09:37:22.928Z,6916.00
2018-02-07T09:38:22.936Z,6868.00
2018-02-07T09:39:22.950Z,6764.00
2018-02-07T09:40:22.960Z,6804.00
2018-02-07T09:41:22.978Z,6820.00
2018-02-07T09:42:22.983Z,6924.00
2018-02-07T09:43:23.000Z,6928.00
2018-02-07T09:44:23.010Z,7004.00
2018-02-07T09:45:23.021Z,6960.00
2018-02-07T09:46:23.031Z,7048.00
2018-02-07T09:47:23.047Z,7208.00
2018-02-07T09:48:23.058Z,7328.00
2018-02-07T09:49:23.066Z,7356.00
2018-02-07T09:50:23.083Z,7384.00
2018-02-07T09:51:23.092Z,7484.00
2018-02-07T09:52:23.107Z,7540.00
2018-02-07T09:53:23.124Z,7476.00
2018-02-07T09:54:23.130Z,7496.00
2018-02-07T09:55:23.144Z,7512.00
2018-02-07T09:56:23.154Z,7620.00
2018-02-07T09:57:23.165Z,7772.00
2018-02-07T09:58:23.178Z,8020.00
2018-02-07T09:59:23.189Z,8300.00
2018-02-07T10:00:23.203Z,8512.00
2018-02-07T10:01:23.224Z,8888.00
2018-02-07T10:02:23.231Z,9032.00
2018-02-07T10:03:23.241Z,8972.00
2018-02-07T10:04:23.252Z,9008.00
2018-02-07T10:05:23.267Z,8768.00
2018-02-07T10:06:23.274Z,8540.00
2018-02-07T10:07:23.288Z,8284.00
2018-02-07T10:08:23.300Z,8284.00
2018-02-07T10:09:23.311Z,8392.00
2018-02-07T10:10:23.328Z,8704.00
2018-02-07T10:11:23.336Z,9164.00
2018-02-07T10:12:23.356Z,9704.00
2018-02-07T10:13:23.363Z,9900.00
2018-02-07T10:14:23.376Z,10076.00
2018-02-07T10:15:23.386Z,10224.00
2018-02-07T10:16:23.402Z,10204.00
2018-02-07T10:17:23.416Z,10104.00
2018-02-07T10:18:23.429Z,10080.00
2018-02-07T10:19:23.439Z,10084.00
2018-02-07T10:20:23.449Z,9952.00
2018-02-07T10:21:23.462Z,9820.00
2018-02-07T10:22:23.491Z,9640.00
2018-02-07T10:23:23.490Z,9452.00
2018-02-07T10:24:23.506Z,9436.00
2018-02-07T10:25:23.515Z,9448.00
2018-02-07T10:26:23.530Z,9548.00
2018-02-07T10:27:23.542Z,9756.00
2018-02-07T10:28:23.553Z,9932.00
2018-02-07T10:29:23.568Z,10060.00
2018-02-07T10:30:23.578Z,10168.00
2018-02-07T10:31:23.593Z,10300.00
2018-02-07T10:32:23.605Z,10564.00
2018-02-07T10:33:23.619Z,10704.00
2018-02-07T10:34:23.629Z,10380.00
2018-02-07T10:35:23.643Z,10680.00
2018-02-07T10:36:23.654Z,10464.00
2018-02-07T10:37:23.667Z,10096.00
2018-02-07T10:38:23.683Z,9684.00
2018-02-07T10:39:23.701Z,9096.00
2018-02-07T10:40:23.713Z,8540.00
2018-02-07T10:41:23.721Z,8020.00
2018-02-07T10:42:23.739Z,7520.00
2018-02-07T10:43:23.747Z,7216.00
2018-02-07T10:44:23.764Z,7052.00
2018-02-07T10:45:23.776Z,7124.00
2018-02-07T10:46:23.787Z,7560.00
2018-02-07T10:47:23.804Z,7388.00
2018-02-07T10:48:23.813Z,7208.00
2018-02-07T10:49:23.830Z,6824.00
2018-02-07T10:50:23.842Z,7204.00
2018-02-07T10:51:23.857Z,7292.00
2018-02-07T10:52:23.880Z,7428.00
2018-02-07T10:53:23.880Z,6844.00
2018-02-07T10:54:24.035Z,6772.00
2018-02-07T10:55:23.905Z,6428.00
2018-02-07T10:56:23.935Z,6452.00
2018-02-07T10:57:23.930Z,6628.00
2018-02-07T10:58:23.944Z,6544.00
2018-02-07T10:59:23.959Z,6348.00
2018-02-07T11:00:23.976Z,6456.00
2018-02-07T11:01:23.983Z,6264.00
2018-02-07T11:02:23.997Z,6376.00
2018-02-07T11:03:24.011Z,6656.00
2018-02-07T11:04:24.024Z,7084.00
2018-02-07T11:05:24.033Z,7456.00
2018-02-07T11:06:24.051Z,7732.00
2018-02-07T11:07:24.064Z,7932.00
2018-02-07T11:08:24.076Z,8224.00
2018-02-07T11:09:24.085Z,8088.00
2018-02-07T11:10:24.099Z,8052.00
2018-02-07T11:11:24.113Z,8172.00
2018-02-07T11:12:24.123Z,8416.00
2018-02-07T11:13:24.187Z,8692.00
2018-02-07T11:14:24.149Z,8884.00
2018-02-07T11:15:24.166Z,9544.00
2018-02-07T11:16:24.174Z,9948.00
2018-02-07T11:17:24.188Z,9380.00
2018-02-07T11:18:24.201Z,9592.00
2018-02-07T11:19:24.216Z,10272.00
2018-02-07T11:20:24.227Z,9968.00
2018-02-07T11:21:24.239Z,9568.00
2018-02-07T11:22:24.252Z,9592.00
2018-02-07T11:23:24.269Z,9528.00
2018-02-07T11:24:24.281Z,9504.00
2018-02-07T11:25:24.291Z,9764.00
2018-02-07T11:26:24.305Z,9344.00
2018-02-07T11:27:24.316Z,9256.00
2018-02-07T11:28:24.329Z,9020.00
2018-02-07T11:29:24.341Z,8848.00
2018-02-07T11:30:24.354Z,8584.00
2018-02-07T11:31:24.368Z,8380.00
2018-02-07T11:32:24.381Z,8268.00
2018-02-07T11:33:24.395Z,7952.00
2018-02-07T11:34:24.406Z,7716.00
2018-02-07T11:35:24.422Z,7596.00
2018-02-07T11:36:24.432Z,7408.00
2018-02-07T11:37:24.443Z,7380.00
2018-02-07T11:38:24.456Z,7220.00
2018-02-07T11:39:24.493Z,7076.00
2018-02-07T11:40:24.479Z,7040.00
2018-02-07T11:41:24.493Z,6824.00
2018-02-07T11:42:24.509Z,6580.00
2018-02-07T11:43:24.520Z,6368.00
2018-02-07T11:44:24.531Z,6368.00
2018-02-07T11:45:24.542Z,6236.00
2018-02-07T11:46:24.555Z,6096.00
2018-02-07T11:47:24.570Z,5980.00
2018-02-07T11:48:24.581Z,6176.00
2018-02-07T11:49:24.592Z,6576.00
2018-02-07T11:50:24.607Z,6460.00
2018-02-07T11:51:24.616Z,6368.00
2018-02-07T11:52:24.629Z,5708.00
2018-02-07T11:53:24.645Z,5656.00
2018-02-07T11:54:24.653Z,6128.00
2018-02-07T11:55:24.671Z,6256.00
2018-02-07T11:56:24.681Z,5852.00
2018-02-07T11:57:24.688Z,6160.00
2018-02-07T11:58:24.704Z,5364.00
2018-02-07T11:59:24.713Z,5432.00
2018-02-07T12:00:24.724Z,5184.00
2018-02-07T12:01:24.739Z,5228.00
2018-02-07T12:02:24.752Z,5480.00
2018-02-07T12:03:24.764Z,5560.00
2018-02-07T12:04:24.775Z,4924.00
2018-02-07T12:05:24.787Z,4716.00
2018-02-07T12:06:24.801Z,4552.00
2018-02-07T12:07:24.814Z,4484.00
2018-02-07T12:08:24.826Z,4380.00
2018-02-07T12:09:24.837Z,4296.00
2018-02-07T12:10:24.851Z,4232.00
2018-02-07T12:11:24.865Z,4192.00
2018-02-07T12:12:24.873Z,4188.00
2018-02-07T12:13:24.889Z,4228.00
2018-02-07T12:14:24.903Z,4352.00
2018-02-07T12:15:24.912Z,4588.00
2018-02-07T12:16:24.924Z,4720.00
2018-02-07T12:17:24.949Z,4904.00
2018-02-07T12:18:24.943Z,4924.00
2018-02-07T12:19:24.961Z,5112.00
2018-02-07T12:20:24.969Z,5232.00
2018-02-07T12:21:24.981Z,5372.00
2018-02-07T12:22:24.994Z,5464.00
2018-02-07T12:23:25.007Z,5532.00
2018-02-07T12:24:25.023Z,5600.00
2018-02-07T12:25:25.029Z,5572.00
2018-02-07T12:26:25.044Z,5736.00
2018-02-07T12:27:25.089Z,5864.00
2018-02-07T12:28:25.069Z,6084.00
2018-02-07T12:29:25.083Z,6272.00
2018-02-07T12:30:25.090Z,6596.00
2018-02-07T12:31:25.104Z,6112.00
2018-02-07T12:32:25.116Z,6600.00
2018-02-07T12:33:25.129Z,6220.00
2018-02-07T12:34:25.140Z,6256.00
2018-02-07T12:35:25.153Z,6132.00
2018-02-07T12:36:25.167Z,6040.00
2018-02-07T12:37:25.177Z,5544.00
2018-02-07T12:38:25.187Z,5888.00
2018-02-07T12:39:25.198Z,5960.00
2018-02-07T12:40:25.216Z,6036.00
2018-02-07T12:41:25.227Z,5936.00
2018-02-07T12:42:25.240Z,5936.00
2018-02-07T12:43:25.251Z,5876.00